Time;durP1;ratioP1;P1;durP2;ratioP2;P2;SDS_P1;SDS_P2;PMS_P1;PMS_P2;Temp;Humidity;BMP_temperature;BMP_pressure;BME280_temperature;BME280_humidity;BME280_pressure;Samples;Min_cycle;Max_cycle;Signal;HPM_P1;HPM_P2
2022/07/26 00:01:54;;;;;;;14.88;4.57;;;17.60;89.40;;;;;;5034970;28;20203;-86
2022/07/26 00:04:20;;;;;;;15.88;5.05;;;17.70;89.10;;;;;;5035001;28;20551;-87
2022/07/26 00:06:45;;;;;;;14.85;5.75;;;17.70;89.00;;;;;;5034926;28;20663;-86
2022/07/26 00:09:11;;;;;;;16.20;5.10;;;17.70;88.90;;;;;;5052872;28;20172;-86
2022/07/26 00:11:36;;;;;;;14.52;4.72;;;17.70;88.90;;;;;;5035053;28;20184;-86
2022/07/26 00:14:05;;;;;;;11.70;4.68;;;17.70;88.90;;;;;;5034899;28;20281;-86
2022/07/26 00:16:31;;;;;;;18.45;4.47;;;17.70;88.90;;;;;;5034949;28;20292;-86
2022/07/26 00:18:57;;;;;;;19.95;5.63;;;17.70;88.80;;;;;;5034846;28;20294;-86
2022/07/26 00:21:23;;;;;;;10.63;4.68;;;17.70;88.70;;;;;;5034909;28;20210;-87
2022/07/26 00:23:49;;;;;;;13.85;5.10;;;17.70;88.90;;;;;;5052660;28;20187;-86
2022/07/26 00:26:14;;;;;;;22.17;5.35;;;17.70;89.00;;;;;;5034797;28;20172;-87
2022/07/26 00:28:40;;;;;;;16.85;4.93;;;17.60;89.00;;;;;;5052512;28;20250;-86
2022/07/26 00:31:06;;;;;;;8.43;4.57;;;17.60;89.10;;;;;;5035294;28;20176;-86
2022/07/26 00:33:32;;;;;;;17.80;5.05;;;17.50;89.10;;;;;;5038455;28;20183;-86
2022/07/26 00:35:57;;;;;;;12.52;4.32;;;17.50;89.20;;;;;;5038585;28;20180;-86
2022/07/26 00:38:23;;;;;;;12.43;4.50;;;17.50;89.30;;;;;;5056332;28;20223;-86
2022/07/26 00:40:49;;;;;;;12.95;4.65;;;17.40;89.40;;;;;;5038547;28;20176;-87
2022/07/26 00:43:14;;;;;;;12.63;4.75;;;17.30;89.40;;;;;;5038732;28;20199;-86
2022/07/26 00:45:40;;;;;;;8.00;4.13;;;17.30;89.50;;;;;;5038478;28;20196;-86
2022/07/26 00:48:06;;;;;;;16.02;4.63;;;17.30;89.60;;;;;;5056217;28;20172;-86
2022/07/26 00:50:32;;;;;;;9.52;4.72;;;17.30;89.80;;;;;;5038729;28;20176;-86
2022/07/26 00:52:58;;;;;;;11.93;5.03;;;17.30;89.80;;;;;;5056051;28;20164;-86
2022/07/26 00:55:24;;;;;;;14.00;4.90;;;17.30;89.90;;;;;;5056030;28;20270;-86
2022/07/26 00:57:49;;;;;;;15.88;5.05;;;17.30;89.80;;;;;;5038083;28;20273;-86
2022/07/26 01:00:18;;;;;;;14.27;5.20;;;17.30;89.80;;;;;;5038157;28;20238;-86
2022/07/26 01:02:44;;;;;;;15.55;4.32;;;17.20;89.90;;;;;;5055932;28;20172;-86
2022/07/26 01:05:10;;;;;;;17.52;5.25;;;17.20;90.10;;;;;;5037987;28;20203;-86
2022/07/26 01:07:37;;;;;;;16.85;5.30;;;17.20;90.30;;;;;;5038015;28;20172;-86
2022/07/26 01:10:11;;;;;;;15.52;5.35;;;17.20;90.20;;;;;;5037937;28;20187;-86
2022/07/26 01:12:40;;;;;;;14.43;4.75;;;17.20;90.20;;;;;;5055677;28;20157;-86
2022/07/26 01:15:07;;;;;;;20.67;5.22;;;17.10;90.50;;;;;;5055743;28;20192;-86
2022/07/26 01:17:33;;;;;;;16.00;5.28;;;17.10;90.60;;;;;;5055537;28;20260;-86
2022/07/26 01:19:59;;;;;;;21.25;5.10;;;17.10;90.80;;;;;;5055587;28;20636;-86
2022/07/26 01:22:24;;;;;;;15.80;5.15;;;17.10;90.80;;;;;;5037698;28;20222;-86
2022/07/26 01:24:50;;;;;;;21.23;5.50;;;17.10;90.70;;;;;;5037563;28;20196;-86
2022/07/26 01:27:15;;;;;;;20.50;5.53;;;17.10;90.70;;;;;;5037684;28;20175;-86
2022/07/26 01:29:41;;;;;;;15.32;5.18;;;17.10;90.80;;;;;;5055518;28;20654;-86
2022/07/26 01:32:07;;;;;;;11.65;4.78;;;17.10;90.90;;;;;;5055421;28;20520;-86
2022/07/26 01:34:33;;;;;;;26.27;5.60;;;17.20;90.80;;;;;;5037416;28;20357;-86
2022/07/26 01:36:59;;;;;;;16.77;5.63;;;17.20;90.60;;;;;;5038326;28;20215;-86
2022/07/26 01:39:25;;;;;;;16.98;5.50;;;17.20;90.50;;;;;;5037297;28;20575;-86
2022/07/26 01:41:50;;;;;;;19.10;5.28;;;17.10;90.60;;;;;;5037387;28;20676;-86
2022/07/26 01:44:16;;;;;;;15.18;5.03;;;17.00;90.80;;;;;;5055254;28;20187;-86
2022/07/26 01:46:41;;;;;;;20.30;5.43;;;17.00;90.90;;;;;;5037222;28;20182;-86
2022/07/26 01:49:08;;;;;;;23.23;5.97;;;16.90;91.10;;;;;;5037554;28;20190;-86
2022/07/26 01:51:34;;;;;;;21.05;5.53;;;16.90;91.20;;;;;;5037190;28;20179;-86
2022/07/26 01:54:00;;;;;;;16.30;5.13;;;16.90;91.10;;;;;;5054872;28;20207;-86
2022/07/26 01:56:26;;;;;;;16.08;5.47;;;16.90;91.10;;;;;;5037138;28;20168;-86
2022/07/26 01:58:52;;;;;;;15.77;5.30;;;17.00;91.00;;;;;;5037004;28;20211;-87
2022/07/26 02:01:17;;;;;;;14.48;5.07;;;16.90;91.00;;;;;;5054801;28;20665;-86
2022/07/26 02:03:43;;;;;;;13.30;4.85;;;16.80;91.10;;;;;;5054750;28;20242;-86
2022/07/26 02:06:09;;;;;;;16.05;6.05;;;16.90;91.20;;;;;;5036872;28;20172;-86
2022/07/26 02:08:34;;;;;;;19.30;6.70;;;16.90;91.30;;;;;;5054767;28;20180;-86
2022/07/26 02:11:00;;;;;;;14.55;5.05;;;16.90;91.30;;;;;;5037000;28;20184;-86
2022/07/26 02:13:27;;;;;;;16.75;5.45;;;16.90;91.30;;;;;;5036860;28;20262;-86
2022/07/26 02:15:53;;;;;;;23.80;5.13;;;16.90;91.30;;;;;;5036612;28;20195;-86
2022/07/26 02:18:18;;;;;;;16.50;5.40;;;16.80;91.40;;;;;;5054433;28;20253;-86
2022/07/26 02:20:44;;;;;;;23.90;5.60;;;16.80;91.40;;;;;;5054664;28;20168;-86
2022/07/26 02:23:10;;;;;;;20.15;5.03;;;16.80;91.40;;;;;;5054514;28;20168;-86
2022/07/26 02:25:35;;;;;;;20.23;5.47;;;16.80;91.40;;;;;;5036729;28;20192;-87
2022/07/26 02:28:01;;;;;;;23.15;5.40;;;16.80;91.30;;;;;;5036478;28;20179;-86
2022/07/26 02:30:27;;;;;;;25.52;6.05;;;16.80;91.40;;;;;;5036594;28;20263;-86
2022/07/26 02:32:52;;;;;;;13.93;4.75;;;16.80;91.40;;;;;;5036678;28;20180;-86
2022/07/26 02:35:18;;;;;;;15.38;4.63;;;16.80;91.40;;;;;;5054030;28;20584;-87
2022/07/26 02:37:44;;;;;;;24.05;5.72;;;16.80;91.40;;;;;;5036211;28;20183;-86
2022/07/26 02:40:10;;;;;;;27.65;6.45;;;16.90;91.40;;;;;;5054287;28;20172;-86
2022/07/26 02:42:35;;;;;;;17.63;4.70;;;16.90;91.40;;;;;;5054125;28;20254;-86
2022/07/26 02:45:01;;;;;;;21.25;5.22;;;17.00;91.50;;;;;;5036060;28;20227;-86
2022/07/26 02:47:27;;;;;;;18.88;5.05;;;17.00;91.40;;;;;;5036194;28;20180;-86
2022/07/26 02:49:52;;;;;;;16.05;5.18;;;17.00;91.30;;;;;;5036187;28;20183;-86
2022/07/26 02:52:18;;;;;;;20.45;5.43;;;17.00;91.20;;;;;;5053930;28;20564;-86
2022/07/26 02:54:43;;;;;;;16.83;4.65;;;17.00;91.20;;;;;;5035525;28;20571;-86
2022/07/26 02:57:09;;;;;;;24.58;5.45;;;17.00;91.20;;;;;;5053804;28;20580;-86
2022/07/26 02:59:35;;;;;;;15.57;5.10;;;17.00;91.20;;;;;;5035801;28;20686;-87
2022/07/26 03:02:00;;;;;;;15.95;4.80;;;17.00;91.20;;;;;;5053670;28;20226;-87
2022/07/26 03:04:26;;;;;;;17.20;4.90;;;17.00;91.20;;;;;;5035819;28;20248;-87
2022/07/26 03:06:51;;;;;;;15.30;5.28;;;17.10;91.30;;;;;;5035833;28;20217;-86
2022/07/26 03:09:17;;;;;;;19.63;5.78;;;17.10;91.40;;;;;;5053873;28;20252;-87
2022/07/26 03:11:42;;;;;;;20.25;5.13;;;17.10;91.40;;;;;;5035735;28;20191;-87
2022/07/26 03:14:08;;;;;;;19.48;6.60;;;17.20;91.30;;;;;;5035612;28;20200;-86
2022/07/26 03:16:34;;;;;;;20.42;4.93;;;17.20;91.20;;;;;;5035611;28;20187;-86
2022/07/26 03:19:00;;;;;;;22.92;5.15;;;17.20;91.00;;;;;;5053364;28;20199;-86
2022/07/26 03:21:27;;;;;;;18.10;4.97;;;17.20;91.00;;;;;;5035426;28;20641;-87
2022/07/26 03:23:52;;;;;;;19.55;5.35;;;17.20;90.90;;;;;;5035500;28;20191;-86
2022/07/26 03:26:18;;;;;;;18.75;4.72;;;17.20;90.90;;;;;;5035486;28;20175;-86
2022/07/26 03:28:44;;;;;;;19.40;4.93;;;17.20;90.90;;;;;;5035503;28;20198;-86
2022/07/26 03:31:11;;;;;;;20.25;4.78;;;17.20;90.90;;;;;;5053297;28;20649;-86
2022/07/26 03:33:37;;;;;;;21.83;6.30;;;17.20;90.90;;;;;;5052942;28;20251;-86
2022/07/26 03:36:03;;;;;;;19.67;5.55;;;17.20;91.00;;;;;;5035406;28;20207;-87
2022/07/26 03:38:29;;;;;;;21.95;5.25;;;17.20;91.10;;;;;;5053098;28;20199;-86
2022/07/26 03:40:54;;;;;;;20.95;5.20;;;17.20;91.10;;;;;;5035605;28;20179;-86
2022/07/26 03:43:20;;;;;;;21.15;5.57;;;17.20;91.10;;;;;;5053066;28;20547;-86
2022/07/26 03:45:45;;;;;;;20.20;5.53;;;17.10;91.10;;;;;;5052946;28;20563;-86
2022/07/26 03:48:11;;;;;;;23.88;6.00;;;17.10;91.30;;;;;;5053152;28;20635;-86
2022/07/26 03:50:37;;;;;;;14.77;4.22;;;17.20;91.30;;;;;;5035595;28;20273;-87
2022/07/26 03:53:03;;;;;;;7.28;3.92;;;17.00;91.00;;;;;;5035416;28;20178;-86
2022/07/26 03:58:13;;;;;;;13.80;3.80;;;16.70;91.10;;;;;;5053863;28;20203;-89
2022/07/26 04:00:38;;;;;;;12.65;4.88;;;16.60;91.40;;;;;;5053358;28;20168;-88
2022/07/26 04:03:04;;;;;;;8.25;4.40;;;16.60;91.90;;;;;;5053357;28;20573;-89
2022/07/26 04:05:29;;;;;;;10.13;4.72;;;16.40;92.40;;;;;;5035345;28;20202;-89
2022/07/26 04:07:55;;;;;;;6.38;3.78;;;16.50;92.60;;;;;;5039058;28;20634;-89
2022/07/26 04:10:21;;;;;;;5.43;3.38;;;16.50;92.60;;;;;;5057582;28;20634;-89
2022/07/26 04:12:48;;;;;;;8.70;3.85;;;16.50;92.60;;;;;;5039448;28;20175;-88
2022/07/26 04:15:15;;;;;;;6.70;3.85;;;16.40;92.60;;;;;;5039341;28;20196;-89
2022/07/26 04:17:42;;;;;;;12.43;3.72;;;16.40;92.80;;;;;;5057331;28;20709;-89
2022/07/26 04:20:09;;;;;;;6.53;3.22;;;16.30;92.80;;;;;;5039339;28;20577;-88
2022/07/26 04:22:36;;;;;;;6.63;4.32;;;16.40;92.90;;;;;;5039654;28;20168;-89
2022/07/26 04:25:04;;;;;;;11.38;5.13;;;16.30;93.00;;;;;;5039199;28;20218;-89
2022/07/26 04:27:30;;;;;;;9.55;4.60;;;16.40;93.20;;;;;;5056908;28;20202;-89
2022/07/26 04:29:55;;;;;;;9.13;4.40;;;16.50;93.20;;;;;;5057224;28;20172;-89
2022/07/26 04:32:21;;;;;;;6.43;4.35;;;16.60;93.30;;;;;;5039199;28;20176;-88
2022/07/26 04:34:46;;;;;;;9.25;4.43;;;16.50;93.30;;;;;;5056641;28;20256;-88
2022/07/26 04:37:12;;;;;;;6.97;4.05;;;16.50;93.40;;;;;;5039014;28;20176;-88
2022/07/26 04:39:37;;;;;;;8.57;3.90;;;16.50;93.50;;;;;;5039576;28;20226;-87
2022/07/26 04:42:03;;;;;;;8.02;3.70;;;16.50;93.50;;;;;;5056620;28;20203;-88
2022/07/26 04:44:29;;;;;;;18.60;4.32;;;16.50;93.60;;;;;;5038944;28;20693;-88
2022/07/26 04:46:54;;;;;;;8.65;4.55;;;16.60;93.60;;;;;;5038871;28;20168;-88
2022/07/26 04:49:20;;;;;;;7.90;4.05;;;16.70;93.60;;;;;;5039011;28;20646;-88
2022/07/26 04:51:45;;;;;;;8.50;4.30;;;16.60;93.60;;;;;;5038959;28;20176;-88
2022/07/26 04:54:11;;;;;;;10.65;4.40;;;16.70;93.70;;;;;;5039027;28;20199;-88
2022/07/26 04:56:36;;;;;;;7.82;4.35;;;16.70;93.70;;;;;;5038793;28;20194;-88
2022/07/26 04:59:02;;;;;;;8.20;4.45;;;16.70;93.70;;;;;;5038654;28;20210;-88
2022/07/26 05:01:27;;;;;;;9.65;4.72;;;16.70;93.80;;;;;;5038821;28;20231;-88
2022/07/26 05:03:53;;;;;;;7.50;3.80;;;16.70;93.90;;;;;;5056323;28;20188;-88
2022/07/26 05:06:18;;;;;;;8.48;4.35;;;16.80;94.00;;;;;;5056493;28;20183;-88
2022/07/26 05:08:44;;;;;;;12.68;5.40;;;16.80;94.00;;;;;;5056622;28;20172;-88
2022/07/26 05:11:10;;;;;;;13.38;5.22;;;16.90;94.10;;;;;;5056592;28;20545;-88
2022/07/26 05:13:35;;;;;;;11.18;5.45;;;16.90;94.10;;;;;;5038522;28;20184;-88
2022/07/26 05:16:01;;;;;;;10.65;5.55;;;17.00;94.10;;;;;;5038625;28;20179;-88
2022/07/26 05:18:28;;;;;;;8.60;4.85;;;17.00;94.10;;;;;;5038872;28;20199;-88
2022/07/26 05:20:54;;;;;;;10.40;5.07;;;17.00;94.20;;;;;;5056254;28;20255;-88
2022/07/26 05:23:20;;;;;;;12.68;5.57;;;17.00;94.10;;;;;;5038230;28;20231;-88
2022/07/26 05:25:46;;;;;;;11.50;5.90;;;17.00;94.10;;;;;;5038294;28;20196;-89
2022/07/26 05:28:11;;;;;;;13.90;5.50;;;17.00;94.10;;;;;;5038247;28;20250;-88
2022/07/26 05:30:37;;;;;;;13.20;5.15;;;16.90;94.00;;;;;;5055947;28;20180;-88
2022/07/26 05:33:03;;;;;;;15.55;6.00;;;16.90;94.00;;;;;;5055709;28;20180;-88
2022/07/26 05:35:28;;;;;;;23.23;6.05;;;16.90;94.10;;;;;;5055634;28;20265;-88
2022/07/26 05:37:54;;;;;;;9.18;5.18;;;17.00;94.10;;;;;;5038052;28;20180;-88
2022/07/26 05:40:19;;;;;;;12.88;5.18;;;17.00;94.10;;;;;;5037931;28;20271;-87
2022/07/26 05:42:45;;;;;;;11.93;5.05;;;17.00;94.10;;;;;;5037680;28;20180;-88
2022/07/26 05:45:10;;;;;;;12.75;5.50;;;17.00;93.90;;;;;;5037831;28;20694;-88
2022/07/26 05:47:36;;;;;;;13.85;5.68;;;17.00;93.90;;;;;;5056291;28;20644;-88
2022/07/26 05:50:03;;;;;;;13.48;4.70;;;17.00;93.90;;;;;;5038035;28;20703;-88
2022/07/26 05:52:28;;;;;;;16.30;4.90;;;17.00;93.90;;;;;;5037812;28;20202;-88
2022/07/26 05:54:54;;;;;;;12.60;3.42;;;17.00;93.80;;;;;;5037747;28;20192;-87
2022/07/26 05:57:20;;;;;;;9.75;4.43;;;16.90;93.50;;;;;;5037898;28;20194;-88
2022/07/26 05:59:45;;;;;;;9.40;3.90;;;16.90;93.50;;;;;;5037680;28;20204;-88
2022/07/26 06:02:11;;;;;;;13.05;5.32;;;16.90;93.50;;;;;;5037660;28;20179;-88
2022/07/26 06:04:36;;;;;;;14.27;3.72;;;16.90;93.50;;;;;;5037535;28;20229;-88
2022/07/26 06:07:02;;;;;;;7.93;3.67;;;16.90;93.50;;;;;;5055425;28;20237;-88
2022/07/26 06:09:28;;;;;;;12.13;3.20;;;17.00;93.50;;;;;;5055614;28;20221;-88
2022/07/26 06:11:53;;;;;;;11.18;3.08;;;16.90;93.20;;;;;;5055380;28;20183;-87
2022/07/26 06:14:19;;;;;;;7.18;2.58;;;17.00;93.20;;;;;;5055479;28;20245;-88
2022/07/26 06:16:46;;;;;;;13.07;3.75;;;16.90;92.90;;;;;;5037500;28;20180;-88
2022/07/26 06:19:12;;;;;;;12.13;2.65;;;16.90;93.00;;;;;;5036976;28;20223;-88
2022/07/26 06:21:37;;;;;;;8.75;1.77;;;16.80;92.70;;;;;;5037039;28;20626;-88
2022/07/26 06:24:03;;;;;;;6.60;2.03;;;16.50;92.10;;;;;;5036928;28;20196;-87
2022/07/26 06:26:29;;;;;;;6.53;1.75;;;16.50;92.00;;;;;;5055046;28;20191;-88
2022/07/26 06:28:55;;;;;;;12.32;2.00;;;16.50;91.70;;;;;;5036274;28;20650;-88
2022/07/26 06:31:21;;;;;;;6.45;1.70;;;16.50;91.40;;;;;;5054675;28;20698;-88
2022/07/26 06:33:47;;;;;;;8.65;1.80;;;16.40;91.20;;;;;;5054763;28;20183;-87
2022/07/26 06:36:13;;;;;;;10.40;2.10;;;16.60;91.30;;;;;;5036831;28;20179;-88
2022/07/26 06:38:39;;;;;;;6.65;1.75;;;16.70;91.40;;;;;;5036852;28;20307;-88
2022/07/26 06:41:04;;;;;;;6.65;1.88;;;16.70;91.20;;;;;;5037305;28;20203;-88
2022/07/26 06:43:30;;;;;;;7.72;1.92;;;16.80;91.20;;;;;;5036790;28;20217;-88
2022/07/26 06:45:55;;;;;;;8.20;2.67;;;16.80;91.10;;;;;;5036745;28;20168;-89
2022/07/26 06:48:21;;;;;;;8.75;1.73;;;17.00;91.20;;;;;;5036780;28;20213;-88
2022/07/26 06:50:47;;;;;;;9.15;2.10;;;16.80;90.50;;;;;;5036821;28;20187;-89
2022/07/26 06:53:12;;;;;;;8.63;2.03;;;17.00;91.10;;;;;;5036566;28;20180;-87
2022/07/26 06:55:39;;;;;;;12.55;1.73;;;17.00;91.00;;;;;;5036505;28;20548;-87
2022/07/26 06:58:04;;;;;;;6.43;1.85;;;16.80;90.90;;;;;;5054070;28;20176;-88
2022/07/26 07:00:30;;;;;;;6.53;1.98;;;16.70;90.90;;;;;;5053932;28;20255;-87
2022/07/26 07:02:55;;;;;;;7.93;1.80;;;16.30;91.60;;;;;;5054337;28;20207;-88
2022/07/26 07:05:21;;;;;;;10.73;1.85;;;16.20;91.30;;;;;;5036270;28;20202;-88
2022/07/26 07:07:47;;;;;;;9.95;1.58;;;16.00;91.30;;;;;;5036301;28;20172;-87
2022/07/26 07:10:12;;;;;;;6.63;2.05;;;15.80;91.00;;;;;;5036367;28;20540;-88
2022/07/26 07:12:38;;;;;;;8.15;1.88;;;15.90;91.30;;;;;;5054106;28;20167;-88
2022/07/26 07:15:05;;;;;;;7.10;1.80;;;16.00;91.20;;;;;;5036023;28;20199;-88
2022/07/26 07:17:30;;;;;;;11.00;2.20;;;16.00;91.30;;;;;;5053777;28;20164;-87
2022/07/26 07:19:56;;;;;;;11.02;1.95;;;16.00;91.10;;;;;;5035864;28;20286;-87
2022/07/26 07:22:21;;;;;;;9.40;1.83;;;16.10;91.30;;;;;;5035969;28;20168;-87
2022/07/26 07:24:47;;;;;;;7.85;1.92;;;16.20;91.10;;;;;;5035987;28;20192;-87
2022/07/26 07:27:13;;;;;;;10.63;2.08;;;16.30;91.30;;;;;;5036016;28;20182;-88
2022/07/26 07:29:40;;;;;;;9.35;1.90;;;16.30;91.60;;;;;;5053780;28;20590;-87
2022/07/26 07:32:05;;;;;;;5.38;1.88;;;16.40;91.80;;;;;;5035914;28;20201;-87
2022/07/26 07:34:31;;;;;;;6.47;1.80;;;16.50;91.80;;;;;;5035895;28;20759;-87
2022/07/26 07:36:57;;;;;;;10.38;2.00;;;16.70;92.10;;;;;;5036078;28;20195;-87
2022/07/26 07:39:22;;;;;;;8.50;1.65;;;16.60;92.00;;;;;;5035987;28;20239;-88
2022/07/26 07:41:48;;;;;;;7.85;1.80;;;16.70;91.90;;;;;;5036016;28;20172;-88
2022/07/26 07:44:14;;;;;;;5.43;1.73;;;16.70;91.90;;;;;;5035963;28;20238;-87
2022/07/26 07:46:40;;;;;;;9.48;1.80;;;16.60;91.70;;;;;;5036059;28;20172;-88
2022/07/26 07:49:05;;;;;;;6.38;1.80;;;16.60;91.60;;;;;;5053607;28;20172;-87
2022/07/26 07:51:32;;;;;;;13.25;2.53;;;16.60;91.00;;;;;;5053560;28;20258;-85
2022/07/26 07:53:58;;;;;;;7.82;1.70;;;16.80;91.10;;;;;;5053198;28;20547;-86
2022/07/26 07:56:24;;;;;;;5.75;1.80;;;17.10;91.10;;;;;;5035639;28;20179;-86
2022/07/26 07:58:50;;;;;;;7.10;1.92;;;17.30;90.70;;;;;;5035357;28;20204;-87
2022/07/26 08:01:15;;;;;;;6.15;1.92;;;17.10;89.30;;;;;;5035649;28;20168;-87
2022/07/26 08:03:41;;;;;;;6.65;1.80;;;17.00;88.20;;;;;;5035314;28;20241;-87
2022/07/26 08:06:08;;;;;;;4.82;1.80;;;17.10;87.90;;;;;;5035658;28;20172;-88
2022/07/26 08:08:34;;;;;;;4.93;1.70;;;17.20;87.20;;;;;;5035591;28;20190;-87
2022/07/26 08:11:00;;;;;;;4.38;1.40;;;17.30;87.10;;;;;;5053169;28;20164;-86
2022/07/26 08:13:25;;;;;;;6.45;1.30;;;17.30;86.40;;;;;;5035426;28;20191;-88
2022/07/26 08:15:52;;;;;;;2.55;1.15;;;17.20;84.70;;;;;;5035966;28;20198;-88
2022/07/26 08:18:18;;;;;;;3.85;1.20;;;17.30;84.80;;;;;;5035722;28;20676;-87
2022/07/26 08:20:43;;;;;;;5.75;1.17;;;17.30;84.90;;;;;;5053989;28;20179;-88
2022/07/26 08:23:09;;;;;;;8.43;1.42;;;17.40;84.60;;;;;;5054124;28;20173;-88
2022/07/26 08:25:35;;;;;;;6.93;1.30;;;17.20;84.10;;;;;;5036161;28;20237;-87
2022/07/26 08:28:00;;;;;;;7.25;1.55;;;17.20;84.80;;;;;;5035126;28;20688;-86
2022/07/26 08:30:26;;;;;;;4.03;1.33;;;16.40;85.60;;;;;;5035438;28;20191;-86
2022/07/26 08:32:51;;;;;;;12.13;2.13;;;16.50;86.20;;;;;;5035327;28;20172;-87
2022/07/26 08:35:17;;;;;;;8.27;1.67;;;16.50;86.50;;;;;;5035076;28;20207;-87
2022/07/26 08:37:43;;;;;;;11.25;1.50;;;16.50;86.90;;;;;;5035009;28;20176;-87
2022/07/26 08:40:08;;;;;;;7.97;2.40;;;16.50;87.20;;;;;;5051387;28;20299;-86
2022/07/26 08:42:34;;;;;;;9.27;1.35;;;16.80;87.80;;;;;;5035026;28;20199;-87
2022/07/26 08:45:00;;;;;;;6.43;1.50;;;17.10;87.90;;;;;;5035445;28;20223;-87
2022/07/26 08:47:26;;;;;;;5.15;1.98;;;17.10;87.00;;;;;;5035213;28;20622;-87
2022/07/26 08:49:51;;;;;;;6.38;1.48;;;17.20;84.90;;;;;;5035086;28;20199;-85
2022/07/26 08:52:17;;;;;;;4.97;1.60;;;17.30;84.90;;;;;;5053463;28;20168;-85
2022/07/26 08:54:49;;;;;;;3.65;1.27;;;17.30;84.00;;;;;;5038349;28;20234;-86
2022/07/26 08:57:17;;;;;;;6.80;1.58;;;17.30;83.10;;;;;;5056529;28;20183;-87
2022/07/26 08:59:43;;;;;;;10.05;1.75;;;17.50;83.90;;;;;;5038566;28;20203;-87
2022/07/26 09:02:11;;;;;;;5.35;1.70;;;17.40;83.30;;;;;;5038663;28;20180;-86
2022/07/26 09:04:43;;;;;;;10.43;1.90;;;17.30;83.10;;;;;;5056346;28;20565;-86
2022/07/26 09:07:09;;;;;;;11.35;2.10;;;17.50;83.60;;;;;;5056218;28;20239;-87
2022/07/26 09:09:55;;;;;;;6.50;1.40;;;17.30;82.40;;;;;;5038522;28;20226;-87
2022/07/26 09:12:21;;;;;;;10.00;1.92;;;17.40;82.30;;;;;;5056186;28;20164;-87
2022/07/26 09:14:47;;;;;;;9.35;1.65;;;17.50;82.90;;;;;;5056769;28;20246;-88
2022/07/26 09:17:15;;;;;;;8.10;1.60;;;17.40;82.00;;;;;;5039028;28;20175;-89
2022/07/26 09:19:40;;;;;;;6.43;1.42;;;17.40;81.90;;;;;;5039113;28;20203;-89
2022/07/26 09:22:14;;;;;;;7.47;1.80;;;17.00;81.30;;;;;;5039968;28;20168;-88
2022/07/26 09:24:45;;;;;;;6.35;1.80;;;16.80;82.30;;;;;;5039108;28;20717;-89
2022/07/26 09:27:16;;;;;;;6.40;1.90;;;16.80;82.70;;;;;;5039710;28;20213;-86
2022/07/26 09:29:50;;;;;;;10.05;1.73;;;16.80;83.50;;;;;;5038594;28;20176;-86
2022/07/26 09:32:19;;;;;;;5.30;1.30;;;17.10;83.40;;;;;;5037896;28;20757;-87
2022/07/26 09:34:55;;;;;;;5.47;1.23;;;17.40;82.50;;;;;;5037794;28;20239;-87
2022/07/26 09:37:35;;;;;;;8.40;1.67;;;17.50;79.90;;;;;;5038030;28;20168;-87
2022/07/26 09:40:03;;;;;;;5.43;1.48;;;17.70;79.40;;;;;;5037989;28;20199;-87
2022/07/26 09:42:29;;;;;;;4.72;1.52;;;17.70;77.80;;;;;;5056057;28;20179;-86
2022/07/26 09:44:56;;;;;;;6.82;1.35;;;17.70;77.70;;;;;;5038005;28;20191;-87
2022/07/26 09:47:22;;;;;;;7.10;1.40;;;17.70;76.80;;;;;;5055884;28;20533;-87
2022/07/26 09:49:48;;;;;;;10.35;1.85;;;17.60;75.80;;;;;;5037725;28;20175;-86
2022/07/26 09:52:18;;;;;;;8.43;1.92;;;17.60;76.40;;;;;;5038265;28;20705;-87
2022/07/26 09:54:47;;;;;;;10.13;1.90;;;17.50;75.50;;;;;;5037759;28;20810;-86
2022/07/26 09:57:18;;;;;;;7.05;1.63;;;17.50;75.40;;;;;;5055476;28;20183;-86
2022/07/26 09:59:44;;;;;;;7.35;1.52;;;17.80;75.60;;;;;;5037281;28;20204;-86
2022/07/26 10:02:11;;;;;;;6.65;2.20;;;17.80;73.80;;;;;;5037219;28;20172;-86
2022/07/26 10:04:37;;;;;;;4.88;1.40;;;17.90;74.50;;;;;;5036121;28;20569;-85
2022/07/26 10:07:03;;;;;;;9.68;1.95;;;17.90;73.30;;;;;;5055408;28;20251;-86
2022/07/26 10:09:43;;;;;;;9.65;1.92;;;18.10;74.00;;;;;;5054926;28;20172;-85
2022/07/26 10:12:13;;;;;;;5.82;1.67;;;18.20;72.80;;;;;;5036985;28;20172;-85
2022/07/26 10:14:41;;;;;;;7.70;1.90;;;18.20;72.80;;;;;;5036891;28;20286;-85
2022/07/26 10:17:25;;;;;;;10.25;1.63;;;18.00;73.80;;;;;;5036925;28;20583;-85
2022/07/26 10:19:54;;;;;;;9.65;1.65;;;18.00;73.90;;;;;;5036817;28;20637;-85
2022/07/26 10:22:44;;;;;;;8.35;2.15;;;18.20;74.50;;;;;;5036927;28;20172;-85
2022/07/26 10:25:32;;;;;;;5.82;1.67;;;18.30;72.30;;;;;;5044765;28;20203;-85
2022/07/26 10:27:58;;;;;;;9.88;1.88;;;18.50;72.30;;;;;;5029151;28;20605;-85
2022/07/26 10:30:27;;;;;;;9.10;2.20;;;18.30;71.00;;;;;;5037175;28;20214;-85
2022/07/26 10:32:57;;;;;;;12.15;2.38;;;18.30;70.60;;;;;;5054722;28;20164;-85
2022/07/26 10:35:29;;;;;;;10.75;2.40;;;18.20;70.40;;;;;;5055091;28;20200;-87
2022/07/26 10:38:08;;;;;;;7.30;2.28;;;17.90;69.80;;;;;;5037148;28;20172;-88
2022/07/26 10:40:36;;;;;;;9.52;2.35;;;18.10;70.40;;;;;;5038246;28;20279;-88
2022/07/26 10:43:14;;;;;;;7.68;1.90;;;18.20;69.50;;;;;;5038182;28;20179;-89
2022/07/26 10:45:41;;;;;;;13.15;2.72;;;18.40;70.80;;;;;;5036917;28;20238;-90
2022/07/26 10:48:22;;;;;;;11.15;2.08;;;18.70;69.20;;;;;;5037278;28;20191;-88
2022/07/26 10:50:51;;;;;;;7.70;2.00;;;19.00;68.60;;;;;;5037244;28;20263;-87
2022/07/26 10:53:22;;;;;;;11.50;2.20;;;19.00;68.60;;;;;;5054345;28;20681;-86
2022/07/26 10:55:53;;;;;;;8.57;2.35;;;18.80;67.10;;;;;;5054228;28;20292;-87
2022/07/26 10:58:24;;;;;;;11.90;2.35;;;19.00;67.90;;;;;;5036351;28;20171;-86
2022/07/26 11:01:00;;;;;;;15.93;2.28;;;18.70;67.10;;;;;;5036803;28;20175;-88
2022/07/26 11:04:01;;;;;;;12.40;2.72;;;19.10;68.40;;;;;;5037657;28;20164;-91
2022/07/26 11:06:31;;;;;;;11.43;3.08;;;19.20;65.50;;;;;;5040179;28;20192;-90
2022/07/26 11:08:57;;;;;;;12.07;2.13;;;19.10;66.50;;;;;;5039661;28;20180;-89
2022/07/26 11:11:30;;;;;;;9.43;2.55;;;19.20;67.00;;;;;;5055436;28;20167;-89
2022/07/26 11:14:13;;;;;;;10.35;2.58;;;19.10;63.00;;;;;;5037845;28;20245;-88
2022/07/26 11:16:43;;;;;;;9.80;2.65;;;19.00;63.80;;;;;;5053829;28;20171;-88
2022/07/26 11:19:15;;;;;;;14.77;2.67;;;18.90;64.70;;;;;;5036051;28;20203;-88
2022/07/26 11:21:42;;;;;;;9.60;2.40;;;18.70;65.30;;;;;;5054402;28;20206;-88
2022/07/26 11:24:08;;;;;;;8.48;2.70;;;18.50;64.60;;;;;;5036144;28;20196;-88
2022/07/26 11:26:45;;;;;;;11.27;2.55;;;18.80;65.50;;;;;;5036868;28;20187;-89
2022/07/26 11:29:11;;;;;;;15.45;2.63;;;19.20;62.20;;;;;;5053935;28;20520;-89
2022/07/26 11:31:39;;;;;;;9.48;2.25;;;19.40;60.80;;;;;;5035905;28;20176;-88
2022/07/26 11:34:07;;;;;;;10.82;2.53;;;19.40;61.10;;;;;;5036135;28;20223;-89
2022/07/26 11:36:38;;;;;;;13.18;2.42;;;19.80;62.30;;;;;;5036331;28;20700;-88
2022/07/26 11:39:07;;;;;;;11.00;2.40;;;19.90;60.00;;;;;;5036134;28;20203;-88
2022/07/26 11:41:33;;;;;;;10.23;1.70;;;19.40;59.70;;;;;;5036393;28;20172;-87
2022/07/26 11:43:59;;;;;;;14.30;2.30;;;19.40;58.20;;;;;;5035676;28;20253;-88
2022/07/26 11:46:39;;;;;;;11.13;2.50;;;19.10;60.60;;;;;;5035823;28;20172;-88
2022/07/26 11:49:16;;;;;;;11.65;2.05;;;19.00;60.20;;;;;;5035840;28;20168;-89
2022/07/26 11:51:54;;;;;;;8.55;1.95;;;19.30;58.80;;;;;;5035595;28;20172;-89
2022/07/26 11:54:22;;;;;;;11.55;2.90;;;19.40;59.80;;;;;;5035807;28;20819;-88
2022/07/26 11:57:03;;;;;;;12.48;2.42;;;19.40;60.50;;;;;;5035606;28;20171;-88
2022/07/26 11:59:37;;;;;;;10.48;2.35;;;19.20;57.20;;;;;;5035353;28;20290;-89
2022/07/26 12:02:05;;;;;;;9.15;2.03;;;19.50;58.50;;;;;;5053474;28;20167;-89
2022/07/26 12:04:38;;;;;;;13.93;2.20;;;19.60;60.10;;;;;;5035467;28;20290;-89
2022/07/26 12:07:15;;;;;;;13.13;1.85;;;19.60;60.00;;;;;;5035372;28;20200;-89
2022/07/26 12:09:46;;;;;;;13.57;3.00;;;19.70;60.90;;;;;;5053324;28;20164;-89
2022/07/26 12:12:26;;;;;;;12.98;2.65;;;20.20;60.10;;;;;;5035526;28;20164;-88
2022/07/26 12:15:00;;;;;;;10.45;2.63;;;20.40;57.80;;;;;;5035883;28;20195;-89
2022/07/26 12:17:26;;;;;;;10.15;1.88;;;20.50;57.00;;;;;;5053264;28;20622;-89
2022/07/26 12:19:52;;;;;;;13.25;2.42;;;20.00;57.60;;;;;;5035585;28;20227;-88
2022/07/26 12:22:19;;;;;;;7.72;2.47;;;20.30;59.40;;;;;;5036158;28;20218;-89
2022/07/26 12:24:51;;;;;;;9.35;1.95;;;19.70;57.60;;;;;;5035615;28;20680;-89
2022/07/26 12:27:21;;;;;;;8.55;2.00;;;20.30;56.90;;;;;;5036862;28;20172;-90
2022/07/26 12:30:12;;;;;;;7.72;2.20;;;20.20;57.60;;;;;;5039236;28;20179;-89
2022/07/26 12:32:42;;;;;;;7.90;2.10;;;20.10;56.80;;;;;;5039089;28;20168;-89
2022/07/26 12:35:15;;;;;;;8.68;2.60;;;19.90;55.50;;;;;;5039382;28;20219;-89
2022/07/26 12:37:50;;;;;;;7.80;1.52;;;20.00;57.40;;;;;;5039161;28;20180;-89
2022/07/26 12:40:24;;;;;;;9.45;2.22;;;20.30;54.20;;;;;;5057033;28;20203;-89
2022/07/26 12:42:49;;;;;;;8.65;2.08;;;20.50;53.00;;;;;;5039312;28;20667;-88
2022/07/26 12:45:25;;;;;;;10.00;2.45;;;20.20;55.20;;;;;;5038812;28;20279;-89